Artesia Wells, Texas
Current Conditions -  °F | °C
As of 5:53 PM on Wednesday 22 Oct 2014 (Local Time) from KCOT Reporting Station
Overcast Overcast  
Wind Chill: 87°   Ceiling: 7000
Heat Index: 87°   Visibility: 10mi
Dew Point: 56°   Wind: 9mph
Humidity: 35%   Direction: 120°ESE
Pressure: 29.99"   Gusts: NA
Location:  28.28°N, 99.29°W
Report Text: KCOT 222253Z AUTO 12008KT 10SM OVC070 31/13 A2999 RMK AO2 SLP149 T03060133
Loading
Personal Weather Stations






























Interactive Weather Map New forecast layout! Learn more

10-Day Weather Forecast

Advertisements
Track Severe Weather on mobile